Terminal Aerodrome Forecast
Issued by NWS Milwaukee/Sullivan, WI

Home | Current Version | Previous Version | Text Only | Print | Product List | Glossary On
Versions: 1 2 3 4 5 6 7 8 9 10 11 12 13 14 15 16 17 18 19 20 21 22 23 24 25 26 27 28 29 30 31 32 33 34 35 36 37 38 39 40 41 42 43 44 45 46 47 48 49 50
000
FTUS43 KMKX 260520
TAFMKE
TAF
KMKE 260520Z 2606/2712 VRB03KT P6SM FEW150
     FM260900 VRB03KT 5SM BR BKN100
     FM261300 VRB03KT P6SM BKN060
     FM261600 11007KT P6SM BKN110
     FM261800 12007KT P6SM VCSH BKN120
     FM270000 09006KT P6SM OVC080
     FM270300 07005KT P6SM BKN025
     FM270900 36004KT P6SM SCT080=

USA.gov is the U.S. government's official web portal to all federal, state and local government web resources and services.